sensor_id;sensor_type;location;lat;lon;timestamp;pressure;altitude;pressure_sealevel;temperature;humidity
41636;BME280;27623;51.966;4.602;2023-01-26T00:00:49;63324.25;;;1.09;100.00
41636;BME280;27623;51.966;4.602;2023-01-26T00:03:15;63252.13;;;0.83;100.00
41636;BME280;27623;51.966;4.602;2023-01-26T00:05:40;63291.75;;;0.90;100.00
41636;BME280;27623;51.966;4.602;2023-01-26T00:08:08;63237.03;;;0.69;100.00
41636;BME280;27623;51.966;4.602;2023-01-26T00:10:35;63295.72;;;0.63;100.00
41636;BME280;27623;51.966;4.602;2023-01-26T00:13:02;63303.88;;;0.78;100.00
41636;BME280;27623;51.966;4.602;2023-01-26T00:15:27;63274.88;;;0.79;100.00
41636;BME280;27623;51.966;4.602;2023-01-26T00:17:56;63302.75;;;1.10;100.00
41636;BME280;27623;51.966;4.602;2023-01-26T00:20:21;63299.94;;;1.19;100.00
41636;BME280;27623;51.966;4.602;2023-01-26T00:22:47;63324.72;;;1.28;100.00
41636;BME280;27623;51.966;4.602;2023-01-26T00:25:12;63311.28;;;1.29;100.00
41636;BME280;27623;51.966;4.602;2023-01-26T00:27:38;63273.72;;;1.03;100.00
41636;BME280;27623;51.966;4.602;2023-01-26T00:30:03;63277.13;;;1.09;100.00
41636;BME280;27623;51.966;4.602;2023-01-26T00:32:29;63352.78;;;1.14;100.00
41636;BME280;27623;51.966;4.602;2023-01-26T00:34:54;63311.59;;;1.20;100.00
41636;BME280;27623;51.966;4.602;2023-01-26T00:37:20;63349.00;;;1.44;100.00
41636;BME280;27623;51.966;4.602;2023-01-26T00:39:46;63330.25;;;1.21;100.00
41636;BME280;27623;51.966;4.602;2023-01-26T00:42:11;63257.19;;;0.90;100.00
41636;BME280;27623;51.966;4.602;2023-01-26T00:44:40;63318.44;;;1.24;100.00
41636;BME280;27623;51.966;4.602;2023-01-26T00:47:07;63327.88;;;1.17;100.00
41636;BME280;27623;51.966;4.602;2023-01-26T00:49:33;63304.72;;;1.09;100.00
41636;BME280;27623;51.966;4.602;2023-01-26T00:51:59;63317.91;;;1.24;100.00
41636;BME280;27623;51.966;4.602;2023-01-26T00:54:25;63303.81;;;1.03;100.00
41636;BME280;27623;51.966;4.602;2023-01-26T00:56:51;63292.88;;;0.98;100.00
41636;BME280;27623;51.966;4.602;2023-01-26T00:59:16;63284.56;;;0.88;100.00
41636;BME280;27623;51.966;4.602;2023-01-26T01:01:42;63313.22;;;0.89;100.00
41636;BME280;27623;51.966;4.602;2023-01-26T01:04:08;63307.22;;;1.02;100.00
41636;BME280;27623;51.966;4.602;2023-01-26T01:06:34;63278.31;;;0.91;100.00
41636;BME280;27623;51.966;4.602;2023-01-26T01:08:59;63277.66;;;1.02;100.00
41636;BME280;27623;51.966;4.602;2023-01-26T01:11:25;63293.25;;;1.03;100.00
41636;BME280;27623;51.966;4.602;2023-01-26T01:13:51;63279.53;;;1.28;100.00
41636;BME280;27623;51.966;4.602;2023-01-26T01:16:16;63323.72;;;1.08;100.00
41636;BME280;27623;51.966;4.602;2023-01-26T01:18:42;63298.63;;;1.01;100.00
41636;BME280;27623;51.966;4.602;2023-01-26T01:21:10;63343.09;;;1.12;100.00
41636;BME280;27623;51.966;4.602;2023-01-26T01:23:39;63315.16;;;1.14;100.00
41636;BME280;27623;51.966;4.602;2023-01-26T01:26:05;63334.53;;;1.25;100.00
41636;BME280;27623;51.966;4.602;2023-01-26T01:28:31;63318.88;;;1.03;100.00
41636;BME280;27623;51.966;4.602;2023-01-26T01:30:57;63288.19;;;0.96;100.00
41636;BME280;27623;51.966;4.602;2023-01-26T01:33:23;63292.88;;;0.98;100.00
41636;BME280;27623;51.966;4.602;2023-01-26T01:35:58;63302.25;;;1.16;100.00
41636;BME280;27623;51.966;4.602;2023-01-26T01:38:24;63303.16;;;1.15;100.00
41636;BME280;27623;51.966;4.602;2023-01-26T01:40:53;63326.56;;;1.06;100.00
41636;BME280;27623;51.966;4.602;2023-01-26T01:43:20;63332.53;;;1.12;100.00
41636;BME280;27623;51.966;4.602;2023-01-26T01:45:50;63320.03;;;1.26;100.00
41636;BME280;27623;51.966;4.602;2023-01-26T01:48:38;63341.19;;;1.27;100.00
41636;BME280;27623;51.966;4.602;2023-01-26T01:51:13;63317.84;;;1.17;100.00
41636;BME280;27623;51.966;4.602;2023-01-26T01:53:43;63335.25;;;1.21;100.00
41636;BME280;27623;51.966;4.602;2023-01-26T01:56:22;63324.59;;;1.07;100.00
41636;BME280;27623;51.966;4.602;2023-01-26T01:58:53;63311.59;;;1.20;100.00
41636;BME280;27623;51.966;4.602;2023-01-26T02:01:20;63330.78;;;1.22;100.00
41636;BME280;27623;51.966;4.602;2023-01-26T02:03:47;63368.53;;;1.43;100.00
41636;BME280;27623;51.966;4.602;2023-01-26T02:06:21;63357.94;;;1.43;100.00
41636;BME280;27623;51.966;4.602;2023-01-26T02:08:54;63380.72;;;1.45;100.00
41636;BME280;27623;51.966;4.602;2023-01-26T02:11:33;63336.59;;;1.39;100.00
41636;BME280;27623;51.966;4.602;2023-01-26T02:14:03;63367.47;;;1.49;100.00
41636;BME280;27623;51.966;4.602;2023-01-26T02:16:29;63346.94;;;1.30;100.00
41636;BME280;27623;51.966;4.602;2023-01-26T02:18:55;63315.41;;;1.31;100.00
41636;BME280;27623;51.966;4.602;2023-01-26T02:21:24;63310.53;;;1.26;100.00
41636;BME280;27623;51.966;4.602;2023-01-26T02:26:17;63384.50;;;1.49;100.00
41636;BME280;27623;51.966;4.602;2023-01-26T02:28:45;63378.81;;;1.60;100.00
41636;BME280;27623;51.966;4.602;2023-01-26T02:31:12;63380.66;;;1.71;100.00
41636;BME280;27623;51.966;4.602;2023-01-26T02:33:38;63378.28;;;1.59;100.00
41636;BME280;27623;51.966;4.602;2023-01-26T02:36:05;63390.28;;;1.59;100.00
41636;BME280;27623;51.966;4.602;2023-01-26T02:38:38;63311.69;;;1.49;100.00
41636;BME280;27623;51.966;4.602;2023-01-26T02:41:07;63392.66;;;1.63;100.00
41636;BME280;27623;51.966;4.602;2023-01-26T02:43:35;63389.47;;;1.75;100.00
41636;BME280;27623;51.966;4.602;2023-01-26T02:46:00;63366.19;;;1.86;100.00
41636;BME280;27623;51.966;4.602;2023-01-26T02:48:26;63331.28;;;1.55;100.00
41636;BME280;27623;51.966;4.602;2023-01-26T02:51:10;63358.38;;;1.62;100.00
41636;BME280;27623;51.966;4.602;2023-01-26T02:53:38;63382.28;;;1.72;100.00
41636;BME280;27623;51.966;4.602;2023-01-26T02:56:05;63350.69;;;1.66;100.00
41636;BME280;27623;51.966;4.602;2023-01-26T02:58:33;63362.28;;;1.54;100.00
41636;BME280;27623;51.966;4.602;2023-01-26T03:00:58;63382.09;;;1.70;100.00
41636;BME280;27623;51.966;4.602;2023-01-26T03:03:28;63385.31;;;1.66;100.00
41636;BME280;27623;51.966;4.602;2023-01-26T03:06:07;63404.56;;;1.82;100.00
41636;BME280;27623;51.966;4.602;2023-01-26T03:08:33;63367.44;;;1.82;100.00
41636;BME280;27623;51.966;4.602;2023-01-26T03:10:59;63403.88;;;1.93;100.00
41636;BME280;27623;51.966;4.602;2023-01-26T03:13:24;63398.66;;;1.83;100.00
41636;BME280;27623;51.966;4.602;2023-01-26T03:15:50;63382.28;;;1.72;100.00
41636;BME280;27623;51.966;4.602;2023-01-26T03:18:20;63388.75;;;1.79;100.00
41636;BME280;27623;51.966;4.602;2023-01-26T03:21:13;63420.75;;;1.90;100.00
41636;BME280;27623;51.966;4.602;2023-01-26T03:23:57;63422.41;;;1.98;100.00
41636;BME280;27623;51.966;4.602;2023-01-26T03:26:41;63387.03;;;1.96;100.00
41636;BME280;27623;51.966;4.602;2023-01-26T03:29:26;63395.84;;;1.99;100.00
41636;BME280;27623;51.966;4.602;2023-01-26T03:31:52;63401.41;;;2.00;100.00
41636;BME280;27623;51.966;4.602;2023-01-26T03:34:18;63408.03;;;1.94;100.00
41636;BME280;27623;51.966;4.602;2023-01-26T03:36:45;63413.84;;;2.12;100.00
41636;BME280;27623;51.966;4.602;2023-01-26T03:39:10;63425.19;;;2.22;100.00
41636;BME280;27623;51.966;4.602;2023-01-26T03:41:56;63413.91;;;2.26;100.00
41636;BME280;27623;51.966;4.602;2023-01-26T03:44:43;63405.59;;;2.16;100.00
41636;BME280;27623;51.966;4.602;2023-01-26T03:47:27;63430.84;;;2.04;100.00
41636;BME280;27623;51.966;4.602;2023-01-26T03:50:11;63459.84;;;2.22;100.00
41636;BME280;27623;51.966;4.602;2023-01-26T03:52:55;63460.44;;;2.36;100.00
41636;BME280;27623;51.966;4.602;2023-01-26T03:55:39;63441.75;;;2.35;100.00
41636;BME280;27623;51.966;4.602;2023-01-26T03:58:23;63452.16;;;2.33;100.00
41636;BME280;27623;51.966;4.602;2023-01-26T04:00:49;63489.53;;;2.42;100.00
41636;BME280;27623;51.966;4.602;2023-01-26T04:03:15;63466.75;;;2.47;100.00
41636;BME280;27623;51.966;4.602;2023-01-26T04:05:59;63446.06;;;2.39;100.00
41636;BME280;27623;51.966;4.602;2023-01-26T04:08:45;63457.56;;;2.38;100.00
41636;BME280;27623;51.966;4.602;2023-01-26T04:11:12;63460.13;;;2.46;100.00
41636;BME280;27623;51.966;4.602;2023-01-26T04:13:37;63446.44;;;2.37;100.00
41636;BME280;27623;51.966;4.602;2023-01-26T04:16:21;63431.00;;;2.39;100.00
41636;BME280;27623;51.966;4.602;2023-01-26T04:19:06;63439.44;;;2.38;100.00
41636;BME280;27623;51.966;4.602;2023-01-26T04:21:49;63427.91;;;2.25;100.00
41636;BME280;27623;51.966;4.602;2023-01-26T04:24:15;63458.50;;;2.44;100.00
41636;BME280;27623;51.966;4.602;2023-01-26T04:26:42;63430.44;;;2.39;100.00
41636;BME280;27623;51.966;4.602;2023-01-26T04:29:13;63434.44;;;2.45;100.00
41636;BME280;27623;51.966;4.602;2023-01-26T04:31:41;63442.47;;;2.38;100.00
41636;BME280;27623;51.966;4.602;2023-01-26T04:34:12;63435.63;;;2.34;100.00
41636;BME280;27623;51.966;4.602;2023-01-26T04:36:38;63474.31;;;2.54;100.00
41636;BME280;27623;51.966;4.602;2023-01-26T04:39:03;63472.53;;;2.57;100.00
41636;BME280;27623;51.966;4.602;2023-01-26T04:41:30;63478.09;;;2.58;100.00
41636;BME280;27623;51.966;4.602;2023-01-26T04:43:55;63505.81;;;2.72;100.00
41636;BME280;27623;51.966;4.602;2023-01-26T04:46:21;63516.41;;;2.72;100.00
41636;BME280;27623;51.966;4.602;2023-01-26T04:48:47;63502.44;;;2.81;100.00
41636;BME280;27623;51.966;4.602;2023-01-26T04:51:19;63493.78;;;2.72;100.00
41636;BME280;27623;51.966;4.602;2023-01-26T04:53:45;63469.50;;;2.64;100.00
41636;BME280;27623;51.966;4.602;2023-01-26T04:56:24;63481.22;;;2.72;100.00
41636;BME280;27623;51.966;4.602;2023-01-26T04:58:53;63446.66;;;2.47;100.00
41636;BME280;27623;51.966;4.602;2023-01-26T05:01:21;63481.00;;;2.63;100.00
41636;BME280;27623;51.966;4.602;2023-01-26T05:03:47;63458.91;;;2.63;100.00
41636;BME280;27623;51.966;4.602;2023-01-26T05:06:13;63497.91;;;2.67;100.00
41636;BME280;27623;51.966;4.602;2023-01-26T05:08:39;63467.72;;;2.67;100.00
41636;BME280;27623;51.966;4.602;2023-01-26T05:11:05;63477.44;;;2.69;100.00
41636;BME280;27623;51.966;4.602;2023-01-26T05:13:32;63484.09;;;2.78;100.00
41636;BME280;27623;51.966;4.602;2023-01-26T05:15:59;63499.19;;;2.78;100.00
41636;BME280;27623;51.966;4.602;2023-01-26T05:18:25;63479.09;;;2.85;100.00
41636;BME280;27623;51.966;4.602;2023-01-26T05:20:50;63497.97;;;2.81;100.00
41636;BME280;27623;51.966;4.602;2023-01-26T05:23:16;63512.34;;;2.85;100.00
41636;BME280;27623;51.966;4.602;2023-01-26T05:25:44;63528.88;;;2.84;100.00
41636;BME280;27623;51.966;4.602;2023-01-26T05:28:10;63509.09;;;2.82;100.00
41636;BME280;27623;51.966;4.602;2023-01-26T05:30:36;63465.09;;;2.86;100.00
41636;BME280;27623;51.966;4.602;2023-01-26T05:33:03;63475.53;;;2.98;100.00
41636;BME280;27623;51.966;4.602;2023-01-26T05:35:29;63472.47;;;2.90;100.00
41636;BME280;27623;51.966;4.602;2023-01-26T05:37:55;63513.41;;;2.79;100.00
41636;BME280;27623;51.966;4.602;2023-01-26T05:40:22;63483.97;;;2.89;100.00
41636;BME280;27623;51.966;4.602;2023-01-26T05:42:48;63509.84;;;2.92;100.00
41636;BME280;27623;51.966;4.602;2023-01-26T05:45:13;63503.56;;;2.89;100.00
41636;BME280;27623;51.966;4.602;2023-01-26T05:47:43;63532.00;;;3.06;100.00
41636;BME280;27623;51.966;4.602;2023-01-26T05:50:12;63509.75;;;3.11;100.00
41636;BME280;27623;51.966;4.602;2023-01-26T05:52:38;63521.97;;;3.13;100.00
41636;BME280;27623;51.966;4.602;2023-01-26T05:55:04;63521.97;;;3.13;100.00
41636;BME280;27623;51.966;4.602;2023-01-26T05:57:31;63488.88;;;3.08;100.00
41636;BME280;27623;51.966;4.602;2023-01-26T05:59:56;63562.94;;;3.09;100.00
41636;BME280;27623;51.966;4.602;2023-01-26T06:02:22;63507.41;;;3.14;100.00
41636;BME280;27623;51.966;4.602;2023-01-26T06:04:48;63569.44;;;3.15;100.00
41636;BME280;27623;51.966;4.602;2023-01-26T06:07:14;63534.72;;;3.16;100.00
41636;BME280;27623;51.966;4.602;2023-01-26T06:09:40;63548.56;;;3.12;100.00
41636;BME280;27623;51.966;4.602;2023-01-26T06:12:15;63509.91;;;3.14;100.00
41636;BME280;27623;51.966;4.602;2023-01-26T06:14:42;63543.38;;;3.17;100.00
41636;BME280;27623;51.966;4.602;2023-01-26T06:17:07;63538.16;;;3.14;100.00
41636;BME280;27623;51.966;4.602;2023-01-26T06:19:32;63548.22;;;3.14;100.00
41636;BME280;27623;51.966;4.602;2023-01-26T06:21:58;63510.50;;;3.21;100.00
41636;BME280;27623;51.966;4.602;2023-01-26T06:24:23;63532.63;;;3.28;100.00
41636;BME280;27623;51.966;4.602;2023-01-26T06:26:49;63573.25;;;3.26;100.00
41636;BME280;27623;51.966;4.602;2023-01-26T06:29:15;63527.06;;;3.27;100.00
41636;BME280;27623;51.966;4.602;2023-01-26T06:31:40;63552.22;;;3.27;100.00
41636;BME280;27623;51.966;4.602;2023-01-26T06:34:07;63531.53;;;3.27;100.00
41636;BME280;27623;51.966;4.602;2023-01-26T06:36:33;63565.53;;;3.30;100.00
41636;BME280;27623;51.966;4.602;2023-01-26T06:38:59;63586.41;;;3.33;100.00
41636;BME280;27623;51.966;4.602;2023-01-26T06:41:24;63558.72;;;3.33;100.00
41636;BME280;27623;51.966;4.602;2023-01-26T06:43:50;63562.69;;;3.39;100.00
41636;BME280;27623;51.966;4.602;2023-01-26T06:46:16;63575.97;;;3.35;100.00
41636;BME280;27623;51.966;4.602;2023-01-26T06:48:42;63551.16;;;3.33;100.00
41636;BME280;27623;51.966;4.602;2023-01-26T06:53:55;63599.56;;;3.41;100.00
41636;BME280;27623;51.966;4.602;2023-01-26T06:56:22;63573.66;;;3.38;100.00
41636;BME280;27623;51.966;4.602;2023-01-26T06:58:50;63558.03;;;3.44;100.00
41636;BME280;27623;51.966;4.602;2023-01-26T07:01:17;63581.41;;;3.40;100.00
41636;BME280;27623;51.966;4.602;2023-01-26T07:03:43;63569.34;;;3.41;100.00
41636;BME280;27623;51.966;4.602;2023-01-26T07:06:08;63515.94;;;3.40;100.00
41636;BME280;27623;51.966;4.602;2023-01-26T07:08:37;63529.25;;;3.43;100.00
41636;BME280;27623;51.966;4.602;2023-01-26T07:11:04;63565.78;;;3.47;100.00
41636;BME280;27623;51.966;4.602;2023-01-26T07:13:29;63564.66;;;3.39;100.00
41636;BME280;27623;51.966;4.602;2023-01-26T07:16:10;63576.56;;;3.43;100.00
41636;BME280;27623;51.966;4.602;2023-01-26T07:18:35;63581.06;;;3.50;100.00
41636;BME280;27623;51.966;4.602;2023-01-26T07:21:06;63568.81;;;3.40;100.00
41636;BME280;27623;51.966;4.602;2023-01-26T07:23:32;63537.34;;;3.44;100.00
41636;BME280;27623;51.966;4.602;2023-01-26T07:25:58;63579.06;;;3.43;100.00
41636;BME280;27623;51.966;4.602;2023-01-26T07:28:24;63569.69;;;3.39;100.00
41636;BME280;27623;51.966;4.602;2023-01-26T07:30:50;63551.03;;;3.45;100.00
41636;BME280;27623;51.966;4.602;2023-01-26T07:33:17;63589.53;;;3.48;100.00
41636;BME280;27623;51.966;4.602;2023-01-26T07:35:43;63597.47;;;3.53;100.00
41636;BME280;27623;51.966;4.602;2023-01-26T07:38:09;63576.41;;;3.55;100.00
41636;BME280;27623;51.966;4.602;2023-01-26T07:40:34;63572.81;;;3.54;100.00
41636;BME280;27623;51.966;4.602;2023-01-26T07:43:00;63578.75;;;3.52;100.00
41636;BME280;27623;51.966;4.602;2023-01-26T07:45:26;63611.50;;;3.59;100.00
41636;BME280;27623;51.966;4.602;2023-01-26T07:47:53;63573.38;;;3.61;100.00
41636;BME280;27623;51.966;4.602;2023-01-26T07:50:19;63610.81;;;3.63;100.00
41636;BME280;27623;51.966;4.602;2023-01-26T07:52:48;63599.47;;;3.67;100.00
41636;BME280;27623;51.966;4.602;2023-01-26T07:55:13;63598.59;;;3.68;100.00
41636;BME280;27623;51.966;4.602;2023-01-26T07:57:39;63623.06;;;3.72;100.00
41636;BME280;27623;51.966;4.602;2023-01-26T08:00:06;63581.50;;;3.76;100.00
41636;BME280;27623;51.966;4.602;2023-01-26T08:02:32;63615.00;;;3.79;100.00
41636;BME280;27623;51.966;4.602;2023-01-26T08:05:00;63616.25;;;3.83;100.00
41636;BME280;27623;51.966;4.602;2023-01-26T08:07:26;63615.00;;;3.86;100.00
41636;BME280;27623;51.966;4.602;2023-01-26T08:09:52;63644.75;;;3.93;100.00
41636;BME280;27623;51.966;4.602;2023-01-26T08:12:17;63634.13;;;3.92;100.00
41636;BME280;27623;51.966;4.602;2023-01-26T08:14:43;63630.34;;;3.96;100.00
41636;BME280;27623;51.966;4.602;2023-01-26T08:17:08;63661.31;;;3.99;100.00
41636;BME280;27623;51.966;4.602;2023-01-26T08:19:33;63608.56;;;4.01;100.00
41636;BME280;27623;51.966;4.602;2023-01-26T08:22:00;63633.41;;;4.03;100.00
41636;BME280;27623;51.966;4.602;2023-01-26T08:24:25;63641.53;;;4.04;100.00
41636;BME280;27623;51.966;4.602;2023-01-26T08:26:52;63662.06;;;4.09;100.00
41636;BME280;27623;51.966;4.602;2023-01-26T08:29:23;63645.50;;;4.10;100.00
41636;BME280;27623;51.966;4.602;2023-01-26T08:31:51;63664.06;;;4.08;100.00
41636;BME280;27623;51.966;4.602;2023-01-26T08:34:19;63646.06;;;4.10;100.00
41636;BME280;27623;51.966;4.602;2023-01-26T08:36:52;63662.41;;;4.07;100.00
41636;BME280;27623;51.966;4.602;2023-01-26T08:39:18;63665.13;;;4.09;100.00
41636;BME280;27623;51.966;4.602;2023-01-26T08:41:47;63610.94;;;4.06;100.00
41636;BME280;27623;51.966;4.602;2023-01-26T08:44:12;63633.06;;;4.05;100.00
41636;BME280;27623;51.966;4.602;2023-01-26T08:46:38;63631.59;;;3.99;100.00
41636;BME280;27623;51.966;4.602;2023-01-26T08:49:03;63682.56;;;4.00;100.00
41636;BME280;27623;51.966;4.602;2023-01-26T08:51:31;63637.72;;;4.00;100.00
41636;BME280;27623;51.966;4.602;2023-01-26T08:53:57;63660.75;;;3.98;100.00
41636;BME280;27623;51.966;4.602;2023-01-26T08:56:24;63660.41;;;4.00;100.00
41636;BME280;27623;51.966;4.602;2023-01-26T08:58:50;63636.13;;;4.06;100.00
41636;BME280;27623;51.966;4.602;2023-01-26T09:01:16;63649.47;;;4.09;100.00
41636;BME280;27623;51.966;4.602;2023-01-26T09:03:44;63649.31;;;4.13;100.00
41636;BME280;27623;51.966;4.602;2023-01-26T09:06:11;63641.75;;;4.21;100.00
41636;BME280;27623;51.966;4.602;2023-01-26T09:08:38;63681.97;;;4.32;100.00
41636;BME280;27623;51.966;4.602;2023-01-26T09:11:05;63716.03;;;4.43;100.00
41636;BME280;27623;51.966;4.602;2023-01-26T09:13:31;63678.56;;;4.48;100.00
41636;BME280;27623;51.966;4.602;2023-01-26T09:15:56;63694.97;;;4.59;100.00
41636;BME280;27623;51.966;4.602;2023-01-26T09:18:24;63720.06;;;4.70;100.00
41636;BME280;27623;51.966;4.602;2023-01-26T09:20:52;63710.72;;;4.80;100.00
41636;BME280;27623;51.966;4.602;2023-01-26T09:23:20;63718.66;;;4.86;100.00
41636;BME280;27623;51.966;4.602;2023-01-26T09:25:51;63745.72;;;4.90;100.00
41636;BME280;27623;51.966;4.602;2023-01-26T09:28:17;63758.34;;;4.90;100.00
41636;BME280;27623;51.966;4.602;2023-01-26T09:30:43;63752.59;;;4.94;100.00
41636;BME280;27623;51.966;4.602;2023-01-26T09:33:08;63740.50;;;4.94;100.00
41636;BME280;27623;51.966;4.602;2023-01-26T09:35:33;63744.13;;;4.95;100.00
41636;BME280;27623;51.966;4.602;2023-01-26T09:37:59;63698.31;;;4.97;100.00
41636;BME280;27623;51.966;4.602;2023-01-26T09:43:03;63708.97;;;4.98;100.00
41636;BME280;27623;51.966;4.602;2023-01-26T09:45:45;63741.59;;;5.02;100.00
41636;BME280;27623;51.966;4.602;2023-01-26T09:48:36;63746.47;;;5.00;100.00
41636;BME280;27623;51.966;4.602;2023-01-26T09:51:15;63788.66;;;5.04;100.00
41636;BME280;27623;51.966;4.602;2023-01-26T09:53:49;63749.34;;;5.05;100.00
41636;BME280;27623;51.966;4.602;2023-01-26T09:56:18;63760.91;;;5.04;100.00
41636;BME280;27623;51.966;4.602;2023-01-26T09:58:56;63751.69;;;5.02;100.00
41636;BME280;27623;51.966;4.602;2023-01-26T10:01:44;63754.59;;;5.07;100.00
41636;BME280;27623;51.966;4.602;2023-01-26T10:06:46;63771.22;;;5.21;100.00
41636;BME280;27623;51.966;4.602;2023-01-26T10:09:21;63784.75;;;5.26;100.00
41636;BME280;27623;51.966;4.602;2023-01-26T10:11:54;63764.75;;;5.29;100.00
41636;BME280;27623;51.966;4.602;2023-01-26T10:16:57;63791.63;;;5.30;100.00
41636;BME280;27623;51.966;4.602;2023-01-26T10:19:33;63790.22;;;5.38;100.00
41636;BME280;27623;51.966;4.602;2023-01-26T10:22:08;63801.41;;;5.46;100.00
41636;BME280;27623;51.966;4.602;2023-01-26T10:24:37;63824.72;;;5.54;100.00
41636;BME280;27623;51.966;4.602;2023-01-26T10:27:08;63822.38;;;5.57;100.00
41636;BME280;27623;51.966;4.602;2023-01-26T10:29:35;63850.56;;;5.69;100.00
41636;BME280;27623;51.966;4.602;2023-01-26T10:32:00;63851.00;;;5.95;100.00
41636;BME280;27623;51.966;4.602;2023-01-26T10:34:26;63867.66;;;6.23;100.00
41636;BME280;27623;51.966;4.602;2023-01-26T10:36:59;63924.66;;;6.62;100.00
41636;BME280;27623;51.966;4.602;2023-01-26T10:39:26;63948.16;;;6.79;100.00
41636;BME280;27623;51.966;4.602;2023-01-26T10:41:59;63956.69;;;6.99;100.00
41636;BME280;27623;51.966;4.602;2023-01-26T10:44:37;63981.50;;;7.12;100.00
41636;BME280;27623;51.966;4.602;2023-01-26T10:49:38;63997.78;;;7.35;100.00
41636;BME280;27623;51.966;4.602;2023-01-26T10:54:35;64033.31;;;7.63;100.00
41636;BME280;27623;51.966;4.602;2023-01-26T10:59:42;64054.88;;;8.02;100.00
41636;BME280;27623;51.966;4.602;2023-01-26T11:04:35;64112.88;;;8.25;100.00
41636;BME280;27623;51.966;4.602;2023-01-26T11:07:23;64105.09;;;8.30;100.00
41636;BME280;27623;51.966;4.602;2023-01-26T11:09:49;64132.84;;;8.42;100.00
41636;BME280;27623;51.966;4.602;2023-01-26T11:12:18;64149.19;;;8.50;100.00
41636;BME280;27623;51.966;4.602;2023-01-26T11:15:04;64104.03;;;8.43;100.00
41636;BME280;27623;51.966;4.602;2023-01-26T11:17:40;64160.78;;;8.77;100.00
41636;BME280;27623;51.966;4.602;2023-01-26T11:20:33;64172.22;;;9.09;100.00
41636;BME280;27623;51.966;4.602;2023-01-26T11:23:11;64260.25;;;9.39;100.00
41636;BME280;27623;51.966;4.602;2023-01-26T11:28:43;64305.13;;;9.90;98.36
41636;BME280;27623;51.966;4.602;2023-01-26T11:37:38;64362.56;;;10.53;93.05
41636;BME280;27623;51.966;4.602;2023-01-26T11:40:31;64343.63;;;10.59;90.14
41636;BME280;27623;51.966;4.602;2023-01-26T11:44:03;64391.50;;;10.59;91.21
41636;BME280;27623;51.966;4.602;2023-01-26T11:49:04;64438.78;;;11.00;88.16
41636;BME280;27623;51.966;4.602;2023-01-26T11:59:51;64495.50;;;11.75;82.75
41636;BME280;27623;51.966;4.602;2023-01-26T12:02:44;64528.31;;;11.91;82.01
41636;BME280;27623;51.966;4.602;2023-01-26T12:05:25;64500.41;;;11.93;80.53
41636;BME280;27623;51.966;4.602;2023-01-26T12:10:56;64482.75;;;11.67;80.62
41636;BME280;27623;51.966;4.602;2023-01-26T12:13:39;64483.16;;;11.51;79.62
41636;BME280;27623;51.966;4.602;2023-01-26T12:16:24;64435.28;;;11.09;79.78
41636;BME280;27623;51.966;4.602;2023-01-26T12:21:53;64333.28;;;10.28;84.29
41636;BME280;27623;51.966;4.602;2023-01-26T12:24:34;64351.47;;;10.19;86.73
41636;BME280;27623;51.966;4.602;2023-01-26T12:27:02;64391.78;;;10.99;84.56
41636;BME280;27623;51.966;4.602;2023-01-26T12:29:38;64470.22;;;11.49;82.35
41636;BME280;27623;51.966;4.602;2023-01-26T12:32:11;64525.41;;;11.71;81.43
41636;BME280;27623;51.966;4.602;2023-01-26T12:34:38;64531.44;;;11.77;81.02
41636;BME280;27623;51.966;4.602;2023-01-26T12:42:33;64530.47;;;12.00;77.16
41636;BME280;27623;51.966;4.602;2023-01-26T12:45:07;64505.91;;;11.84;79.90
41636;BME280;27623;51.966;4.602;2023-01-26T12:47:49;64570.38;;;12.30;77.68
41636;BME280;27623;51.966;4.602;2023-01-26T12:50:32;64589.84;;;12.53;76.57
41636;BME280;27623;51.966;4.602;2023-01-26T12:53:40;64656.84;;;12.60;73.84
41636;BME280;27623;51.966;4.602;2023-01-26T12:56:45;64605.41;;;12.34;74.83
41636;BME280;27623;51.966;4.602;2023-01-26T12:59:30;64510.28;;;11.74;76.06
41636;BME280;27623;51.966;4.602;2023-01-26T13:01:57;64454.91;;;11.49;77.87
41636;BME280;27623;51.966;4.602;2023-01-26T13:04:23;64410.50;;;11.19;78.91
41636;BME280;27623;51.966;4.602;2023-01-26T13:07:38;64402.56;;;10.79;80.53
41636;BME280;27623;51.966;4.602;2023-01-26T13:15:24;64296.19;;;10.08;86.79
41636;BME280;27623;51.966;4.602;2023-01-26T13:20:42;64280.75;;;9.98;88.72
41636;BME280;27623;51.966;4.602;2023-01-26T13:28:35;64311.09;;;10.39;85.06
41636;BME280;27623;51.966;4.602;2023-01-26T13:31:04;64308.91;;;10.29;83.90
41636;BME280;27623;51.966;4.602;2023-01-26T13:33:30;64278.56;;;10.11;85.12
41636;BME280;27623;51.966;4.602;2023-01-26T13:35:57;64277.84;;;9.93;83.66
41636;BME280;27623;51.966;4.602;2023-01-26T13:38:35;64286.94;;;9.85;82.08
41636;BME280;27623;51.966;4.602;2023-01-26T13:41:08;64276.44;;;9.73;81.35
41636;BME280;27623;51.966;4.602;2023-01-26T13:43:39;64236.25;;;9.67;81.39
41636;BME280;27623;51.966;4.602;2023-01-26T13:46:18;64217.56;;;9.47;79.85
41636;BME280;27623;51.966;4.602;2023-01-26T13:48:51;64241.00;;;9.47;83.15
41636;BME280;27623;51.966;4.602;2023-01-26T13:51:32;64228.28;;;9.47;83.93
41636;BME280;27623;51.966;4.602;2023-01-26T13:54:10;64229.75;;;9.39;85.92
41636;BME280;27623;51.966;4.602;2023-01-26T13:56:41;64216.47;;;9.39;86.55
41636;BME280;27623;51.966;4.602;2023-01-26T13:59:15;64223.22;;;9.26;87.51
41636;BME280;27623;51.966;4.602;2023-01-26T14:01:43;64210.88;;;9.24;87.29
41636;BME280;27623;51.966;4.602;2023-01-26T14:04:18;64190.72;;;9.26;88.61
41636;BME280;27623;51.966;4.602;2023-01-26T14:09:30;64221.56;;;9.46;90.88
41636;BME280;27623;51.966;4.602;2023-01-26T14:12:01;64227.56;;;9.37;90.21
41636;BME280;27623;51.966;4.602;2023-01-26T14:14:31;64235.19;;;9.30;92.15
41636;BME280;27623;51.966;4.602;2023-01-26T14:16:58;64210.13;;;9.28;93.21
41636;BME280;27623;51.966;4.602;2023-01-26T14:19:26;64186.00;;;9.32;93.14
41636;BME280;27623;51.966;4.602;2023-01-26T14:21:56;64212.50;;;9.25;93.22
41636;BME280;27623;51.966;4.602;2023-01-26T14:24:36;64201.41;;;9.20;93.27
41636;BME280;27623;51.966;4.602;2023-01-26T14:29:48;64205.06;;;9.35;93.58